Time,TemperatureF,DewpointF,PressureIn,WindDirection,WindDirectionDegrees,WindSpeedMPH,WindSpeedGustMPH,Humidity,HourlyPrecipIn,Conditions,Clouds,dailyrainin,SoftwareType,DateUTC
2013-07-03 00:00:00,66.5,56.0,30.04,ENE,64,0.0,3.0,69,0.00,CLR,FEW,0.00,WeatherDisplay:10.37,2013-07-02 22:00:00,
2013-07-03 00:30:00,66.3,56.6,30.04,ENE,64,2.0,5.0,71,0.00,CLR,FEW,0.00,WeatherDisplay:10.37,2013-07-02 22:30:00,
2013-07-03 01:00:00,66.2,56.1,30.03,ENE,64,0.0,4.0,70,0.00,CLR,FEW,0.00,WeatherDisplay:10.37,2013-07-02 23:00:00,
2013-07-03 01:30:00,66.0,55.9,30.04,ENE,64,0.0,4.0,70,0.00,CLR,FEW,0.00,WeatherDisplay:10.37,2013-07-02 23:30:00,
2013-07-03 02:00:00,65.4,55.8,30.03,ENE,64,0.0,3.0,71,0.00,CLR,FEW,0.00,WeatherDisplay:10.37,2013-07-03 00:00:00,
2013-07-03 02:30:00,65.1,55.5,30.02,ENE,64,0.0,3.0,71,0.00,CLR,FEW,0.00,WeatherDisplay:10.37,2013-07-03 00:30:00,
2013-07-03 03:00:00,65.0,54.6,30.01,ENE,64,0.0,3.0,69,0.00,CLR,FEW,0.00,WeatherDisplay:10.37,2013-07-03 01:00:00,
2013-07-03 03:30:00,64.8,54.0,30.00,ENE,64,0.0,4.0,68,0.00,CLR,FEW,0.00,WeatherDisplay:10.37,2013-07-03 01:30:00,
2013-07-03 04:30:00,64.3,51.9,30.00,ENE,64,0.0,4.0,64,0.00,CLR,FEW,0.00,WeatherDisplay:10.37,2013-07-03 02:30:00,
2013-07-03 05:00:00,64.2,51.8,30.00,ENE,64,1.0,4.0,64,0.00,CLR,FEW,0.00,WeatherDisplay:10.37,2013-07-03 03:00:00,
2013-07-03 06:00:00,64.0,52.0,30.00,ENE,67,1.0,5.0,65,0.00,CLR,FEW,0.00,WeatherDisplay:10.37,2013-07-03 04:00:00,
2013-07-03 06:30:00,64.1,51.2,30.01,ENE,63,1.0,5.0,63,0.00,CLR,FEW,0.00,WeatherDisplay:10.37,2013-07-03 04:30:00,
2013-07-03 07:00:00,64.0,50.7,30.01,ENE,63,1.0,5.0,62,0.00,CLR,FEW,0.00,WeatherDisplay:10.37,2013-07-03 05:00:00,
2013-07-03 07:30:00,66.9,52.1,30.01,ENE,66,1.0,8.0,59,0.00,CLR,FEW,0.00,WeatherDisplay:10.37,2013-07-03 05:30:00,
2013-07-03 08:00:00,69.8,54.4,30.02,ENE,66,0.0,4.0,58,0.00,CLR,FEW,0.00,WeatherDisplay:10.37,2013-07-03 06:00:00,
2013-07-03 09:00:00,75.4,58.6,30.01,ENE,66,0.0,2.0,56,0.00,CLR,FEW,0.00,WeatherDisplay:10.37,2013-07-03 07:00:00,
2013-07-03 09:30:00,76.9,56.8,30.01,ENE,59,0.0,4.0,50,0.00,CLR,FEW,0.00,WeatherDisplay:10.37,2013-07-03 07:30:00,
2013-07-03 10:00:00,77.0,57.5,30.01,ESE,119,1.0,6.0,51,0.00,CLR,FEW,0.00,WeatherDisplay:10.37,2013-07-03 08:00:00,
2013-07-03 10:30:00,78.5,57.2,30.01,SE,134,1.0,3.0,48,0.00,CLR,FEW,0.00,WeatherDisplay:10.37,2013-07-03 08:30:00,
2013-07-03 11:00:00,79.1,54.1,30.02,SW,232,1.0,5.0,42,0.00,CLR,FEW,0.00,WeatherDisplay:10.37,2013-07-03 09:00:00,
2013-07-03 11:30:00,79.2,56.6,30.02,WSW,245,2.0,6.0,46,0.00,CLR,FEW,0.00,WeatherDisplay:10.37,2013-07-03 09:30:00,
2013-07-03 12:00:00,80.0,56.1,30.01,WNW,286,1.0,8.0,44,0.00,CLR,FEW,0.00,WeatherDisplay:10.37,2013-07-03 10:00:00,
2013-07-03 12:30:00,80.7,56.1,30.01,SW,214,1.0,8.0,43,0.00,CLR,FEW,0.00,WeatherDisplay:10.37,2013-07-03 10:30:00,
2013-07-03 13:00:00,81.9,57.2,30.00,NE,56,1.0,6.0,43,0.00,CLR,FEW,0.00,WeatherDisplay:10.37,2013-07-03 11:00:00,
2013-07-03 13:30:00,83.2,57.1,30.00,WSW,253,2.0,6.0,41,0.00,CLR,FEW,0.00,WeatherDisplay:10.37,2013-07-03 11:30:00,
2013-07-03 14:00:00,80.8,58.7,29.99,NW,307,1.0,8.0,47,0.00,CLR,FEW,0.00,WeatherDisplay:10.37,2013-07-03 12:00:00,
2013-07-03 14:30:00,82.1,57.4,29.99,WNW,293,0.0,7.0,43,0.00,CLR,FEW,0.00,WeatherDisplay:10.37,2013-07-03 12:30:00,
2013-07-03 15:00:00,83.6,56.0,29.99,NW,308,0.0,12.0,39,0.00,CLR,FEW,0.00,WeatherDisplay:10.37,2013-07-03 13:00:00,
2013-07-03 16:00:00,83.7,55.4,29.98,West,280,2.0,10.0,38,0.00,CLR,FEW,0.00,WeatherDisplay:10.37,2013-07-03 14:00:00,
2013-07-03 16:30:00,83.5,55.2,29.97,WNW,293,1.0,7.0,38,0.00,CLR,FEW,0.00,WeatherDisplay:10.37,2013-07-03 14:30:00,
2013-07-03 17:00:00,82.7,55.2,29.97,SW,236,1.0,7.0,39,0.00,CLR,FEW,0.00,WeatherDisplay:10.37,2013-07-03 15:00:00,
2013-07-03 17:30:00,82.2,56.2,29.97,WNW,290,1.0,6.0,41,0.00,CLR,FEW,0.00,WeatherDisplay:10.37,2013-07-03 15:30:00,
2013-07-03 18:00:00,81.3,54.7,29.96,West,274,1.0,7.0,40,0.00,CLR,FEW,0.00,WeatherDisplay:10.37,2013-07-03 16:00:00,
2013-07-03 18:30:00,80.1,56.2,29.96,SSW,203,0.0,5.0,44,0.00,CLR,FEW,0.00,WeatherDisplay:10.37,2013-07-03 16:30:00,
2013-07-03 19:30:00,75.5,55.0,29.95,South,190,0.0,5.0,49,0.00,CLR,FEW,0.00,WeatherDisplay:10.37,2013-07-03 17:30:00,
2013-07-03 20:00:00,74.1,54.3,29.95,South,190,0.0,2.0,50,0.00,CLR,FEW,0.00,WeatherDisplay:10.37,2013-07-03 18:00:00,
2013-07-03 20:30:00,71.3,54.8,29.96,South,190,0.0,1.0,56,0.00,CLR,FEW,0.00,WeatherDisplay:10.37,2013-07-03 18:30:00,
2013-07-03 21:00:00,67.3,52.5,29.96,NE,43,0.0,3.0,59,0.00,CLR,FEW,0.00,WeatherDisplay:10.37,2013-07-03 19:00:00,
2013-07-03 21:30:00,65.1,50.0,29.97,NE,43,0.0,2.0,58,0.00,CLR,FEW,0.00,WeatherDisplay:10.37,2013-07-03 19:30:00,
2013-07-03 22:00:00,64.5,48.9,29.97,ENE,65,0.0,4.0,57,0.00,CLR,FEW,0.00,WeatherDisplay:10.37,2013-07-03 20:00:00,
2013-07-03 22:30:00,64.4,47.3,29.98,ENE,67,1.0,5.0,54,0.00,CLR,FEW,0.00,WeatherDisplay:10.37,2013-07-03 20:30:00,
2013-07-03 23:00:00,65.1,44.4,29.97,NE,50,0.0,9.0,47,0.00,CLR,FEW,0.00,WeatherDisplay:10.37,2013-07-03 21:00:00,